sensor_id;sensor_type;location;lat;lon;timestamp;P1;durP1;ratioP1;P2;durP2;ratioP2
29916;SDS011;16786;49.466;11.068;2023-09-30T00:02:04;11.00;;;4.97;;
29916;SDS011;16786;49.466;11.068;2023-09-30T00:04:31;11.10;;;4.95;;
29916;SDS011;16786;49.466;11.068;2023-09-30T00:06:59;11.75;;;6.05;;
29916;SDS011;16786;49.466;11.068;2023-09-30T00:09:26;7.95;;;4.32;;
29916;SDS011;16786;49.466;11.068;2023-09-30T00:11:54;9.80;;;4.95;;
29916;SDS011;16786;49.466;11.068;2023-09-30T00:14:22;10.85;;;5.05;;
29916;SDS011;16786;49.466;11.068;2023-09-30T00:16:49;11.90;;;5.30;;
29916;SDS011;16786;49.466;11.068;2023-09-30T00:19:17;10.85;;;4.93;;
29916;SDS011;16786;49.466;11.068;2023-09-30T00:21:44;10.98;;;5.13;;
29916;SDS011;16786;49.466;11.068;2023-09-30T00:24:12;10.00;;;4.55;;
29916;SDS011;16786;49.466;11.068;2023-09-30T00:26:40;10.90;;;4.82;;
29916;SDS011;16786;49.466;11.068;2023-09-30T00:29:08;12.13;;;5.32;;
29916;SDS011;16786;49.466;11.068;2023-09-30T00:31:37;9.52;;;4.88;;
29916;SDS011;16786;49.466;11.068;2023-09-30T00:34:04;10.32;;;5.03;;
29916;SDS011;16786;49.466;11.068;2023-09-30T00:36:31;8.98;;;5.18;;
29916;SDS011;16786;49.466;11.068;2023-09-30T00:38:59;13.38;;;5.30;;
29916;SDS011;16786;49.466;11.068;2023-09-30T00:41:26;10.48;;;4.68;;
29916;SDS011;16786;49.466;11.068;2023-09-30T00:43:53;12.75;;;5.10;;
29916;SDS011;16786;49.466;11.068;2023-09-30T00:46:39;9.57;;;5.07;;
29916;SDS011;16786;49.466;11.068;2023-09-30T00:49:08;10.23;;;5.00;;
29916;SDS011;16786;49.466;11.068;2023-09-30T00:51:37;10.25;;;4.95;;
29916;SDS011;16786;49.466;11.068;2023-09-30T00:54:05;10.98;;;5.03;;
29916;SDS011;16786;49.466;11.068;2023-09-30T00:56:33;11.05;;;5.30;;
29916;SDS011;16786;49.466;11.068;2023-09-30T00:59:03;11.88;;;4.70;;
29916;SDS011;16786;49.466;11.068;2023-09-30T01:01:30;11.40;;;5.00;;
29916;SDS011;16786;49.466;11.068;2023-09-30T01:04:00;9.10;;;4.68;;
29916;SDS011;16786;49.466;11.068;2023-09-30T01:06:28;10.82;;;4.90;;
29916;SDS011;16786;49.466;11.068;2023-09-30T01:08:56;10.48;;;4.55;;
29916;SDS011;16786;49.466;11.068;2023-09-30T01:11:24;11.32;;;5.10;;
29916;SDS011;16786;49.466;11.068;2023-09-30T01:13:52;10.63;;;5.25;;
29916;SDS011;16786;49.466;11.068;2023-09-30T01:16:20;11.30;;;5.45;;
29916;SDS011;16786;49.466;11.068;2023-09-30T01:18:48;9.95;;;5.05;;
29916;SDS011;16786;49.466;11.068;2023-09-30T01:21:15;8.40;;;4.25;;
29916;SDS011;16786;49.466;11.068;2023-09-30T01:23:45;9.82;;;4.75;;
29916;SDS011;16786;49.466;11.068;2023-09-30T01:26:13;12.38;;;5.13;;
29916;SDS011;16786;49.466;11.068;2023-09-30T01:28:41;9.02;;;4.50;;
29916;SDS011;16786;49.466;11.068;2023-09-30T01:31:08;12.50;;;5.40;;
29916;SDS011;16786;49.466;11.068;2023-09-30T01:33:36;10.40;;;5.05;;
29916;SDS011;16786;49.466;11.068;2023-09-30T01:36:03;9.35;;;4.45;;
29916;SDS011;16786;49.466;11.068;2023-09-30T01:38:31;10.02;;;4.55;;
29916;SDS011;16786;49.466;11.068;2023-09-30T01:41:00;12.10;;;4.97;;
29916;SDS011;16786;49.466;11.068;2023-09-30T01:43:27;9.65;;;4.75;;
29916;SDS011;16786;49.466;11.068;2023-09-30T01:45:55;12.18;;;4.75;;
29916;SDS011;16786;49.466;11.068;2023-09-30T01:48:23;10.68;;;4.85;;
29916;SDS011;16786;49.466;11.068;2023-09-30T01:50:51;9.63;;;4.53;;
29916;SDS011;16786;49.466;11.068;2023-09-30T01:53:18;10.55;;;4.30;;
29916;SDS011;16786;49.466;11.068;2023-09-30T01:55:45;11.50;;;5.03;;
29916;SDS011;16786;49.466;11.068;2023-09-30T01:58:14;10.50;;;4.72;;
29916;SDS011;16786;49.466;11.068;2023-09-30T02:00:42;10.60;;;5.07;;
29916;SDS011;16786;49.466;11.068;2023-09-30T02:03:09;10.20;;;4.32;;
29916;SDS011;16786;49.466;11.068;2023-09-30T02:05:38;10.35;;;5.28;;
29916;SDS011;16786;49.466;11.068;2023-09-30T02:08:06;10.88;;;4.97;;
29916;SDS011;16786;49.466;11.068;2023-09-30T02:10:33;10.63;;;5.10;;
29916;SDS011;16786;49.466;11.068;2023-09-30T02:13:01;9.40;;;4.80;;
29916;SDS011;16786;49.466;11.068;2023-09-30T02:15:28;11.20;;;5.13;;
29916;SDS011;16786;49.466;11.068;2023-09-30T02:17:56;7.95;;;4.47;;
29916;SDS011;16786;49.466;11.068;2023-09-30T02:20:23;9.93;;;5.00;;
29916;SDS011;16786;49.466;11.068;2023-09-30T02:22:52;10.55;;;5.00;;
29916;SDS011;16786;49.466;11.068;2023-09-30T02:25:21;10.75;;;4.88;;
29916;SDS011;16786;49.466;11.068;2023-09-30T02:27:50;10.45;;;4.57;;
29916;SDS011;16786;49.466;11.068;2023-09-30T02:30:17;10.93;;;4.90;;
29916;SDS011;16786;49.466;11.068;2023-09-30T02:32:44;8.55;;;4.57;;
29916;SDS011;16786;49.466;11.068;2023-09-30T02:35:15;9.23;;;5.10;;
29916;SDS011;16786;49.466;11.068;2023-09-30T02:37:42;8.65;;;4.45;;
29916;SDS011;16786;49.466;11.068;2023-09-30T02:40:10;8.43;;;4.07;;
29916;SDS011;16786;49.466;11.068;2023-09-30T02:42:38;9.15;;;4.53;;
29916;SDS011;16786;49.466;11.068;2023-09-30T02:45:07;9.20;;;4.25;;
29916;SDS011;16786;49.466;11.068;2023-09-30T02:47:37;9.27;;;4.32;;
29916;SDS011;16786;49.466;11.068;2023-09-30T02:50:06;9.68;;;4.63;;
29916;SDS011;16786;49.466;11.068;2023-09-30T02:52:35;9.02;;;3.83;;
29916;SDS011;16786;49.466;11.068;2023-09-30T02:55:03;12.05;;;4.63;;
29916;SDS011;16786;49.466;11.068;2023-09-30T02:57:30;8.55;;;4.30;;
29916;SDS011;16786;49.466;11.068;2023-09-30T02:59:58;6.70;;;3.72;;
29916;SDS011;16786;49.466;11.068;2023-09-30T03:02:38;10.85;;;3.97;;
29916;SDS011;16786;49.466;11.068;2023-09-30T03:05:06;6.82;;;3.40;;
29916;SDS011;16786;49.466;11.068;2023-09-30T03:07:33;7.22;;;3.20;;
29916;SDS011;16786;49.466;11.068;2023-09-30T03:10:01;6.10;;;3.30;;
29916;SDS011;16786;49.466;11.068;2023-09-30T03:12:31;6.60;;;3.08;;
29916;SDS011;16786;49.466;11.068;2023-09-30T03:14:58;6.57;;;3.22;;
29916;SDS011;16786;49.466;11.068;2023-09-30T03:17:26;6.75;;;3.00;;
29916;SDS011;16786;49.466;11.068;2023-09-30T03:19:53;5.20;;;3.08;;
29916;SDS011;16786;49.466;11.068;2023-09-30T03:22:23;7.07;;;2.83;;
29916;SDS011;16786;49.466;11.068;2023-09-30T03:24:53;7.88;;;3.35;;
29916;SDS011;16786;49.466;11.068;2023-09-30T03:27:24;10.45;;;3.47;;
29916;SDS011;16786;49.466;11.068;2023-09-30T03:29:52;7.78;;;3.42;;
29916;SDS011;16786;49.466;11.068;2023-09-30T03:32:19;6.15;;;3.40;;
29916;SDS011;16786;49.466;11.068;2023-09-30T03:34:47;9.93;;;4.07;;
29916;SDS011;16786;49.466;11.068;2023-09-30T03:37:16;8.90;;;3.70;;
29916;SDS011;16786;49.466;11.068;2023-09-30T03:39:43;8.43;;;3.72;;
29916;SDS011;16786;49.466;11.068;2023-09-30T03:42:10;8.32;;;3.85;;
29916;SDS011;16786;49.466;11.068;2023-09-30T03:44:38;8.23;;;3.67;;
29916;SDS011;16786;49.466;11.068;2023-09-30T03:47:05;9.88;;;3.67;;
29916;SDS011;16786;49.466;11.068;2023-09-30T03:49:34;7.90;;;3.50;;
29916;SDS011;16786;49.466;11.068;2023-09-30T03:52:01;10.77;;;4.45;;
29916;SDS011;16786;49.466;11.068;2023-09-30T03:54:29;6.80;;;3.58;;
29916;SDS011;16786;49.466;11.068;2023-09-30T03:56:56;7.00;;;3.55;;
29916;SDS011;16786;49.466;11.068;2023-09-30T03:59:24;7.60;;;3.50;;
29916;SDS011;16786;49.466;11.068;2023-09-30T04:01:52;8.32;;;3.50;;
29916;SDS011;16786;49.466;11.068;2023-09-30T04:04:24;8.88;;;3.58;;
29916;SDS011;16786;49.466;11.068;2023-09-30T04:06:52;6.93;;;3.45;;
29916;SDS011;16786;49.466;11.068;2023-09-30T04:09:20;8.00;;;3.17;;
29916;SDS011;16786;49.466;11.068;2023-09-30T04:11:47;6.80;;;3.45;;
29916;SDS011;16786;49.466;11.068;2023-09-30T04:14:16;7.82;;;3.70;;
29916;SDS011;16786;49.466;11.068;2023-09-30T04:16:43;8.13;;;3.30;;
29916;SDS011;16786;49.466;11.068;2023-09-30T04:19:11;9.02;;;3.85;;
29916;SDS011;16786;49.466;11.068;2023-09-30T04:21:39;7.72;;;3.70;;
29916;SDS011;16786;49.466;11.068;2023-09-30T04:24:06;9.27;;;4.22;;
29916;SDS011;16786;49.466;11.068;2023-09-30T04:26:33;10.02;;;3.50;;
29916;SDS011;16786;49.466;11.068;2023-09-30T04:29:01;9.23;;;3.28;;
29916;SDS011;16786;49.466;11.068;2023-09-30T04:31:29;10.30;;;3.97;;
29916;SDS011;16786;49.466;11.068;2023-09-30T04:33:56;8.55;;;3.75;;
29916;SDS011;16786;49.466;11.068;2023-09-30T04:36:25;8.77;;;4.05;;
29916;SDS011;16786;49.466;11.068;2023-09-30T04:38:52;9.82;;;3.42;;
29916;SDS011;16786;49.466;11.068;2023-09-30T04:41:19;8.77;;;3.67;;
29916;SDS011;16786;49.466;11.068;2023-09-30T04:43:48;9.52;;;3.42;;
29916;SDS011;16786;49.466;11.068;2023-09-30T04:46:16;9.18;;;3.42;;
29916;SDS011;16786;49.466;11.068;2023-09-30T04:48:47;7.07;;;3.42;;
29916;SDS011;16786;49.466;11.068;2023-09-30T04:51:15;7.05;;;3.42;;
29916;SDS011;16786;49.466;11.068;2023-09-30T04:53:45;8.00;;;3.65;;
29916;SDS011;16786;49.466;11.068;2023-09-30T04:56:13;12.02;;;3.35;;
29916;SDS011;16786;49.466;11.068;2023-09-30T04:58:40;8.82;;;3.72;;
29916;SDS011;16786;49.466;11.068;2023-09-30T05:01:09;9.40;;;3.55;;
29916;SDS011;16786;49.466;11.068;2023-09-30T05:03:36;7.00;;;3.13;;
29916;SDS011;16786;49.466;11.068;2023-09-30T05:06:04;7.13;;;3.58;;
29916;SDS011;16786;49.466;11.068;2023-09-30T05:08:32;7.28;;;3.55;;
29916;SDS011;16786;49.466;11.068;2023-09-30T05:10:59;6.78;;;3.60;;
29916;SDS011;16786;49.466;11.068;2023-09-30T05:13:27;8.48;;;3.70;;
29916;SDS011;16786;49.466;11.068;2023-09-30T05:15:54;9.10;;;3.55;;
29916;SDS011;16786;49.466;11.068;2023-09-30T05:18:22;8.15;;;3.83;;
29916;SDS011;16786;49.466;11.068;2023-09-30T05:20:51;9.50;;;3.97;;
29916;SDS011;16786;49.466;11.068;2023-09-30T05:23:20;6.95;;;4.05;;
29916;SDS011;16786;49.466;11.068;2023-09-30T05:25:47;7.30;;;3.47;;
29916;SDS011;16786;49.466;11.068;2023-09-30T05:28:14;7.88;;;4.00;;
29916;SDS011;16786;49.466;11.068;2023-09-30T05:30:42;6.35;;;3.45;;
29916;SDS011;16786;49.466;11.068;2023-09-30T05:33:10;9.57;;;4.50;;
29916;SDS011;16786;49.466;11.068;2023-09-30T05:35:41;9.70;;;5.05;;
29916;SDS011;16786;49.466;11.068;2023-09-30T05:38:08;9.07;;;4.55;;
29916;SDS011;16786;49.466;11.068;2023-09-30T05:40:37;9.85;;;4.30;;
29916;SDS011;16786;49.466;11.068;2023-09-30T05:43:05;7.50;;;4.10;;
29916;SDS011;16786;49.466;11.068;2023-09-30T05:45:33;7.40;;;3.85;;
29916;SDS011;16786;49.466;11.068;2023-09-30T05:48:04;8.20;;;4.30;;
29916;SDS011;16786;49.466;11.068;2023-09-30T05:50:34;8.52;;;4.40;;
29916;SDS011;16786;49.466;11.068;2023-09-30T05:53:03;7.95;;;3.67;;
29916;SDS011;16786;49.466;11.068;2023-09-30T05:55:33;7.55;;;3.78;;
29916;SDS011;16786;49.466;11.068;2023-09-30T05:58:01;11.15;;;4.10;;
29916;SDS011;16786;49.466;11.068;2023-09-30T06:00:28;8.38;;;4.05;;
29916;SDS011;16786;49.466;11.068;2023-09-30T06:02:58;11.57;;;3.88;;
29916;SDS011;16786;49.466;11.068;2023-09-30T06:05:26;8.73;;;4.13;;
29916;SDS011;16786;49.466;11.068;2023-09-30T06:07:58;7.28;;;4.07;;
29916;SDS011;16786;49.466;11.068;2023-09-30T06:10:26;8.50;;;3.95;;
29916;SDS011;16786;49.466;11.068;2023-09-30T06:12:54;10.02;;;4.43;;
29916;SDS011;16786;49.466;11.068;2023-09-30T06:15:23;9.15;;;4.60;;
29916;SDS011;16786;49.466;11.068;2023-09-30T06:17:54;8.77;;;4.00;;
29916;SDS011;16786;49.466;11.068;2023-09-30T06:20:22;9.60;;;4.00;;
29916;SDS011;16786;49.466;11.068;2023-09-30T06:22:54;9.90;;;4.70;;
29916;SDS011;16786;49.466;11.068;2023-09-30T06:25:21;9.18;;;4.20;;
29916;SDS011;16786;49.466;11.068;2023-09-30T06:27:51;10.52;;;4.07;;
29916;SDS011;16786;49.466;11.068;2023-09-30T06:30:19;7.93;;;3.92;;
29916;SDS011;16786;49.466;11.068;2023-09-30T06:32:48;8.70;;;4.50;;
29916;SDS011;16786;49.466;11.068;2023-09-30T06:35:16;8.43;;;4.40;;
29916;SDS011;16786;49.466;11.068;2023-09-30T06:37:47;7.22;;;4.10;;
29916;SDS011;16786;49.466;11.068;2023-09-30T06:40:15;7.95;;;3.85;;
29916;SDS011;16786;49.466;11.068;2023-09-30T06:42:42;7.90;;;4.55;;
29916;SDS011;16786;49.466;11.068;2023-09-30T06:45:09;8.82;;;3.92;;
29916;SDS011;16786;49.466;11.068;2023-09-30T06:47:40;8.50;;;3.97;;
29916;SDS011;16786;49.466;11.068;2023-09-30T06:50:09;10.27;;;4.40;;
29916;SDS011;16786;49.466;11.068;2023-09-30T06:52:40;6.60;;;3.90;;
29916;SDS011;16786;49.466;11.068;2023-09-30T06:55:09;9.40;;;3.90;;
29916;SDS011;16786;49.466;11.068;2023-09-30T06:57:37;9.88;;;4.05;;
29916;SDS011;16786;49.466;11.068;2023-09-30T07:00:08;8.05;;;4.15;;
29916;SDS011;16786;49.466;11.068;2023-09-30T07:02:40;8.18;;;3.95;;
29916;SDS011;16786;49.466;11.068;2023-09-30T07:05:09;9.73;;;3.75;;
29916;SDS011;16786;49.466;11.068;2023-09-30T07:07:39;7.63;;;3.88;;
29916;SDS011;16786;49.466;11.068;2023-09-30T07:10:09;8.65;;;3.80;;
29916;SDS011;16786;49.466;11.068;2023-09-30T07:12:38;8.93;;;4.00;;
29916;SDS011;16786;49.466;11.068;2023-09-30T07:15:06;8.68;;;3.88;;
29916;SDS011;16786;49.466;11.068;2023-09-30T07:17:35;8.52;;;3.63;;
29916;SDS011;16786;49.466;11.068;2023-09-30T07:20:02;8.50;;;3.83;;
29916;SDS011;16786;49.466;11.068;2023-09-30T07:22:32;6.88;;;3.90;;
29916;SDS011;16786;49.466;11.068;2023-09-30T07:25:15;8.23;;;3.45;;
29916;SDS011;16786;49.466;11.068;2023-09-30T07:27:44;8.60;;;3.80;;
29916;SDS011;16786;49.466;11.068;2023-09-30T07:30:12;6.55;;;3.70;;
29916;SDS011;16786;49.466;11.068;2023-09-30T07:32:42;6.18;;;3.63;;
29916;SDS011;16786;49.466;11.068;2023-09-30T07:35:11;8.95;;;3.80;;
29916;SDS011;16786;49.466;11.068;2023-09-30T07:37:41;9.23;;;4.07;;
29916;SDS011;16786;49.466;11.068;2023-09-30T07:40:09;8.70;;;3.83;;
29916;SDS011;16786;49.466;11.068;2023-09-30T07:42:37;8.93;;;3.67;;
29916;SDS011;16786;49.466;11.068;2023-09-30T07:45:04;6.85;;;3.60;;
29916;SDS011;16786;49.466;11.068;2023-09-30T07:47:32;7.90;;;4.22;;
29916;SDS011;16786;49.466;11.068;2023-09-30T07:50:01;9.65;;;4.15;;
29916;SDS011;16786;49.466;11.068;2023-09-30T07:52:33;10.40;;;4.15;;
29916;SDS011;16786;49.466;11.068;2023-09-30T07:55:00;13.10;;;3.80;;
29916;SDS011;16786;49.466;11.068;2023-09-30T07:57:27;6.72;;;3.60;;
29916;SDS011;16786;49.466;11.068;2023-09-30T07:59:55;9.43;;;3.85;;
29916;SDS011;16786;49.466;11.068;2023-09-30T08:02:22;9.50;;;3.58;;
29916;SDS011;16786;49.466;11.068;2023-09-30T08:04:51;7.75;;;3.83;;
29916;SDS011;16786;49.466;11.068;2023-09-30T08:07:18;8.27;;;4.03;;
29916;SDS011;16786;49.466;11.068;2023-09-30T08:09:47;8.98;;;3.70;;
29916;SDS011;16786;49.466;11.068;2023-09-30T08:12:14;8.90;;;3.95;;
29916;SDS011;16786;49.466;11.068;2023-09-30T08:14:42;7.93;;;3.80;;
29916;SDS011;16786;49.466;11.068;2023-09-30T08:17:11;9.02;;;3.88;;
29916;SDS011;16786;49.466;11.068;2023-09-30T08:19:39;8.52;;;3.85;;
29916;SDS011;16786;49.466;11.068;2023-09-30T08:22:06;7.97;;;3.60;;
29916;SDS011;16786;49.466;11.068;2023-09-30T08:24:34;9.48;;;4.30;;
29916;SDS011;16786;49.466;11.068;2023-09-30T08:27:01;10.63;;;3.80;;
29916;SDS011;16786;49.466;11.068;2023-09-30T08:29:28;9.02;;;3.65;;
29916;SDS011;16786;49.466;11.068;2023-09-30T08:31:56;7.90;;;3.65;;
29916;SDS011;16786;49.466;11.068;2023-09-30T08:34:23;7.80;;;3.60;;
29916;SDS011;16786;49.466;11.068;2023-09-30T08:36:50;12.15;;;4.45;;
29916;SDS011;16786;49.466;11.068;2023-09-30T08:39:18;7.20;;;3.55;;
29916;SDS011;16786;49.466;11.068;2023-09-30T08:41:45;9.10;;;4.07;;
29916;SDS011;16786;49.466;11.068;2023-09-30T08:44:12;8.55;;;4.03;;
29916;SDS011;16786;49.466;11.068;2023-09-30T08:46:40;7.90;;;3.60;;
29916;SDS011;16786;49.466;11.068;2023-09-30T08:49:08;9.05;;;4.18;;
29916;SDS011;16786;49.466;11.068;2023-09-30T08:51:38;9.18;;;3.80;;
29916;SDS011;16786;49.466;11.068;2023-09-30T08:54:05;8.68;;;4.07;;
29916;SDS011;16786;49.466;11.068;2023-09-30T08:56:33;7.93;;;3.17;;
29916;SDS011;16786;49.466;11.068;2023-09-30T08:59:01;6.68;;;3.67;;
29916;SDS011;16786;49.466;11.068;2023-09-30T09:01:30;6.88;;;3.47;;
29916;SDS011;16786;49.466;11.068;2023-09-30T09:03:58;9.25;;;4.25;;
29916;SDS011;16786;49.466;11.068;2023-09-30T09:06:26;9.50;;;4.80;;
29916;SDS011;16786;49.466;11.068;2023-09-30T09:08:53;8.32;;;3.80;;
29916;SDS011;16786;49.466;11.068;2023-09-30T09:11:21;6.32;;;4.07;;
29916;SDS011;16786;49.466;11.068;2023-09-30T09:13:51;9.32;;;5.03;;
29916;SDS011;16786;49.466;11.068;2023-09-30T09:18:50;8.40;;;4.65;;
29916;SDS011;16786;49.466;11.068;2023-09-30T09:21:23;7.25;;;4.30;;
29916;SDS011;16786;49.466;11.068;2023-09-30T09:23:54;8.68;;;4.15;;
29916;SDS011;16786;49.466;11.068;2023-09-30T09:26:28;8.52;;;4.60;;
29916;SDS011;16786;49.466;11.068;2023-09-30T09:29:00;8.45;;;4.47;;
29916;SDS011;16786;49.466;11.068;2023-09-30T09:31:29;9.75;;;4.72;;
29916;SDS011;16786;49.466;11.068;2023-09-30T09:33:58;11.18;;;5.00;;
29916;SDS011;16786;49.466;11.068;2023-09-30T09:36:39;9.70;;;4.50;;
29916;SDS011;16786;49.466;11.068;2023-09-30T09:39:08;6.32;;;4.50;;
29916;SDS011;16786;49.466;11.068;2023-09-30T09:41:49;8.52;;;4.65;;
29916;SDS011;16786;49.466;11.068;2023-09-30T09:44:19;8.68;;;4.47;;
29916;SDS011;16786;49.466;11.068;2023-09-30T09:46:48;10.18;;;4.90;;
29916;SDS011;16786;49.466;11.068;2023-09-30T09:49:17;7.68;;;4.78;;
29916;SDS011;16786;49.466;11.068;2023-09-30T09:51:45;8.43;;;4.68;;
29916;SDS011;16786;49.466;11.068;2023-09-30T09:54:14;7.90;;;5.13;;
29916;SDS011;16786;49.466;11.068;2023-09-30T09:56:45;10.95;;;5.20;;
29916;SDS011;16786;49.466;11.068;2023-09-30T09:59:12;10.45;;;5.10;;
29916;SDS011;16786;49.466;11.068;2023-09-30T10:01:41;9.50;;;5.57;;
29916;SDS011;16786;49.466;11.068;2023-09-30T10:04:12;7.95;;;4.80;;
29916;SDS011;16786;49.466;11.068;2023-09-30T10:06:43;7.72;;;4.70;;
29916;SDS011;16786;49.466;11.068;2023-09-30T10:09:15;6.90;;;5.30;;
29916;SDS011;16786;49.466;11.068;2023-09-30T10:11:44;8.20;;;5.00;;
29916;SDS011;16786;49.466;11.068;2023-09-30T10:14:31;7.82;;;4.80;;
29916;SDS011;16786;49.466;11.068;2023-09-30T10:17:03;8.73;;;5.75;;
29916;SDS011;16786;49.466;11.068;2023-09-30T10:19:31;9.13;;;5.50;;
29916;SDS011;16786;49.466;11.068;2023-09-30T10:24:44;10.07;;;5.53;;
29916;SDS011;16786;49.466;11.068;2023-09-30T10:29:53;11.90;;;5.22;;
29916;SDS011;16786;49.466;11.068;2023-09-30T10:32:21;7.75;;;4.70;;
29916;SDS011;16786;49.466;11.068;2023-09-30T10:34:49;11.50;;;5.40;;
29916;SDS011;16786;49.466;11.068;2023-09-30T10:37:19;10.38;;;5.75;;
29916;SDS011;16786;49.466;11.068;2023-09-30T10:39:54;7.75;;;4.88;;
29916;SDS011;16786;49.466;11.068;2023-09-30T10:50:56;8.23;;;5.70;;
29916;SDS011;16786;49.466;11.068;2023-09-30T10:53:27;9.30;;;5.55;;
29916;SDS011;16786;49.466;11.068;2023-09-30T10:55:56;7.57;;;5.28;;
29916;SDS011;16786;49.466;11.068;2023-09-30T11:01:08;8.10;;;4.95;;
29916;SDS011;16786;49.466;11.068;2023-09-30T11:03:36;9.50;;;5.07;;
29916;SDS011;16786;49.466;11.068;2023-09-30T11:06:04;7.53;;;5.20;;
29916;SDS011;16786;49.466;11.068;2023-09-30T11:08:34;7.72;;;5.63;;
29916;SDS011;16786;49.466;11.068;2023-09-30T11:11:03;7.65;;;5.25;;
29916;SDS011;16786;49.466;11.068;2023-09-30T11:13:32;9.93;;;6.00;;
29916;SDS011;16786;49.466;11.068;2023-09-30T11:16:03;10.70;;;5.50;;
29916;SDS011;16786;49.466;11.068;2023-09-30T11:18:37;9.52;;;5.68;;
29916;SDS011;16786;49.466;11.068;2023-09-30T11:21:06;8.40;;;5.60;;
29916;SDS011;16786;49.466;11.068;2023-09-30T11:23:36;7.63;;;5.13;;
29916;SDS011;16786;49.466;11.068;2023-09-30T11:26:04;9.35;;;5.78;;
29916;SDS011;16786;49.466;11.068;2023-09-30T11:28:41;9.13;;;6.03;;
29916;SDS011;16786;49.466;11.068;2023-09-30T11:31:10;10.02;;;5.85;;
29916;SDS011;16786;49.466;11.068;2023-09-30T11:33:53;7.60;;;6.32;;
29916;SDS011;16786;49.466;11.068;2023-09-30T11:36:23;7.63;;;5.95;;
29916;SDS011;16786;49.466;11.068;2023-09-30T11:38:51;9.63;;;5.90;;
29916;SDS011;16786;49.466;11.068;2023-09-30T11:41:21;7.25;;;5.88;;
29916;SDS011;16786;49.466;11.068;2023-09-30T11:44:02;11.00;;;6.57;;
29916;SDS011;16786;49.466;11.068;2023-09-30T11:49:35;15.05;;;6.85;;
29916;SDS011;16786;49.466;11.068;2023-09-30T11:52:08;10.85;;;6.28;;
29916;SDS011;16786;49.466;11.068;2023-09-30T11:57:13;9.20;;;6.07;;
29916;SDS011;16786;49.466;11.068;2023-09-30T11:59:45;8.55;;;5.88;;
29916;SDS011;16786;49.466;11.068;2023-09-30T12:02:14;10.57;;;6.55;;
29916;SDS011;16786;49.466;11.068;2023-09-30T12:04:44;10.48;;;6.07;;
29916;SDS011;16786;49.466;11.068;2023-09-30T12:07:14;8.57;;;6.15;;
29916;SDS011;16786;49.466;11.068;2023-09-30T12:09:42;10.88;;;6.45;;
29916;SDS011;16786;49.466;11.068;2023-09-30T12:12:09;9.93;;;6.55;;
29916;SDS011;16786;49.466;11.068;2023-09-30T12:14:38;8.20;;;6.22;;
29916;SDS011;16786;49.466;11.068;2023-09-30T12:17:07;8.98;;;6.80;;
29916;SDS011;16786;49.466;11.068;2023-09-30T12:19:39;9.90;;;5.88;;
29916;SDS011;16786;49.466;11.068;2023-09-30T12:22:09;11.05;;;6.18;;
29916;SDS011;16786;49.466;11.068;2023-09-30T12:24:37;11.13;;;6.80;;
29916;SDS011;16786;49.466;11.068;2023-09-30T12:27:06;10.52;;;6.90;;
29916;SDS011;16786;49.466;11.068;2023-09-30T12:29:34;10.20;;;6.55;;
29916;SDS011;16786;49.466;11.068;2023-09-30T12:32:01;10.40;;;6.35;;
29916;SDS011;16786;49.466;11.068;2023-09-30T12:34:29;8.20;;;6.00;;
29916;SDS011;16786;49.466;11.068;2023-09-30T12:36:57;8.63;;;6.40;;
29916;SDS011;16786;49.466;11.068;2023-09-30T12:39:25;8.55;;;6.68;;
29916;SDS011;16786;49.466;11.068;2023-09-30T12:41:53;8.35;;;6.53;;
29916;SDS011;16786;49.466;11.068;2023-09-30T12:44:21;9.57;;;6.75;;
29916;SDS011;16786;49.466;11.068;2023-09-30T12:46:50;10.15;;;7.53;;
29916;SDS011;16786;49.466;11.068;2023-09-30T12:49:17;9.70;;;6.70;;
29916;SDS011;16786;49.466;11.068;2023-09-30T12:51:45;10.23;;;7.13;;
29916;SDS011;16786;49.466;11.068;2023-09-30T12:54:13;9.05;;;6.72;;
29916;SDS011;16786;49.466;11.068;2023-09-30T12:56:41;9.02;;;7.22;;
29916;SDS011;16786;49.466;11.068;2023-09-30T12:59:09;8.32;;;6.75;;
29916;SDS011;16786;49.466;11.068;2023-09-30T13:01:36;9.18;;;7.15;;
29916;SDS011;16786;49.466;11.068;2023-09-30T13:04:04;9.38;;;6.95;;
29916;SDS011;16786;49.466;11.068;2023-09-30T13:06:35;8.68;;;6.93;;
29916;SDS011;16786;49.466;11.068;2023-09-30T13:09:03;9.98;;;6.80;;
29916;SDS011;16786;49.466;11.068;2023-09-30T13:11:35;9.20;;;7.13;;
29916;SDS011;16786;49.466;11.068;2023-09-30T13:14:04;8.95;;;7.18;;
29916;SDS011;16786;49.466;11.068;2023-09-30T13:16:31;8.95;;;6.70;;
29916;SDS011;16786;49.466;11.068;2023-09-30T13:18:59;9.52;;;7.22;;
29916;SDS011;16786;49.466;11.068;2023-09-30T13:21:27;7.55;;;6.75;;
29916;SDS011;16786;49.466;11.068;2023-09-30T13:23:54;8.60;;;6.78;;
29916;SDS011;16786;49.466;11.068;2023-09-30T13:26:21;7.90;;;7.13;;
29916;SDS011;16786;49.466;11.068;2023-09-30T13:28:49;8.52;;;6.78;;
29916;SDS011;16786;49.466;11.068;2023-09-30T13:31:16;9.15;;;7.15;;
29916;SDS011;16786;49.466;11.068;2023-09-30T13:33:43;7.97;;;6.90;;
29916;SDS011;16786;49.466;11.068;2023-09-30T13:36:11;8.80;;;7.32;;
29916;SDS011;16786;49.466;11.068;2023-09-30T13:38:38;8.23;;;7.07;;
29916;SDS011;16786;49.466;11.068;2023-09-30T13:41:06;10.20;;;7.68;;
29916;SDS011;16786;49.466;11.068;2023-09-30T13:43:33;9.07;;;7.82;;
29916;SDS011;16786;49.466;11.068;2023-09-30T13:46:03;9.82;;;7.68;;
29916;SDS011;16786;49.466;11.068;2023-09-30T13:48:33;8.93;;;7.90;;
29916;SDS011;16786;49.466;11.068;2023-09-30T13:51:10;10.45;;;7.95;;
29916;SDS011;16786;49.466;11.068;2023-09-30T13:53:38;8.75;;;7.25;;
29916;SDS011;16786;49.466;11.068;2023-09-30T13:56:06;9.77;;;7.97;;
29916;SDS011;16786;49.466;11.068;2023-09-30T13:58:33;11.23;;;8.18;;
29916;SDS011;16786;49.466;11.068;2023-09-30T14:01:01;10.10;;;8.18;;
29916;SDS011;16786;49.466;11.068;2023-09-30T14:03:28;11.20;;;8.55;;
29916;SDS011;16786;49.466;11.068;2023-09-30T14:05:56;9.48;;;7.60;;
29916;SDS011;16786;49.466;11.068;2023-09-30T14:08:24;8.80;;;7.90;;
29916;SDS011;16786;49.466;11.068;2023-09-30T14:10:52;10.20;;;8.45;;
29916;SDS011;16786;49.466;11.068;2023-09-30T14:13:19;9.38;;;7.72;;
29916;SDS011;16786;49.466;11.068;2023-09-30T14:15:46;10.70;;;8.40;;
29916;SDS011;16786;49.466;11.068;2023-09-30T14:18:14;11.48;;;8.45;;
29916;SDS011;16786;49.466;11.068;2023-09-30T14:20:42;10.63;;;8.02;;
29916;SDS011;16786;49.466;11.068;2023-09-30T14:23:09;9.57;;;7.90;;
29916;SDS011;16786;49.466;11.068;2023-09-30T14:25:37;9.90;;;7.85;;
29916;SDS011;16786;49.466;11.068;2023-09-30T14:28:04;12.75;;;7.68;;
29916;SDS011;16786;49.466;11.068;2023-09-30T14:30:32;10.00;;;7.63;;
29916;SDS011;16786;49.466;11.068;2023-09-30T14:33:00;11.45;;;8.05;;
29916;SDS011;16786;49.466;11.068;2023-09-30T14:35:28;10.25;;;7.07;;
29916;SDS011;16786;49.466;11.068;2023-09-30T14:37:55;8.88;;;7.90;;
29916;SDS011;16786;49.466;11.068;2023-09-30T14:40:23;9.13;;;7.30;;
29916;SDS011;16786;49.466;11.068;2023-09-30T14:42:51;9.02;;;7.95;;
29916;SDS011;16786;49.466;11.068;2023-09-30T14:45:19;9.43;;;7.43;;
29916;SDS011;16786;49.466;11.068;2023-09-30T14:47:48;10.23;;;8.00;;
29916;SDS011;16786;49.466;11.068;2023-09-30T14:50:16;12.52;;;8.02;;
29916;SDS011;16786;49.466;11.068;2023-09-30T14:52:43;10.63;;;8.27;;
29916;SDS011;16786;49.466;11.068;2023-09-30T14:55:10;11.73;;;8.57;;
29916;SDS011;16786;49.466;11.068;2023-09-30T14:57:38;12.95;;;8.80;;
29916;SDS011;16786;49.466;11.068;2023-09-30T15:00:05;11.32;;;8.55;;
29916;SDS011;16786;49.466;11.068;2023-09-30T15:02:33;11.68;;;8.73;;
29916;SDS011;16786;49.466;11.068;2023-09-30T15:05:01;10.55;;;8.70;;